Time;durP1;ratioP1;P1;durP2;ratioP2;P2;SDS_P1;SDS_P2;PMS_P1;PMS_P2;Temp;Humidity;BMP_temperature;BMP_pressure;BME280_temperature;BME280_humidity;BME280_pressure;Samples;Min_cycle;Max_cycle;Signal;HPM_P1;HPM_P2
2022/11/02 00:05:55;;;;;;;0.62;0.62;;;;;;;11.32;68.59;101045.94;18305404;32;20109;-59
2022/11/02 00:16:07;;;;;;;0.70;0.70;;;;;;;11.27;67.94;101064.22;18307145;32;20133;-59
2022/11/02 00:26:10;;;;;;;0.40;0.40;;;;;;;11.19;67.87;101072.00;18308702;32;20100;-59
2022/11/02 00:36:16;;;;;;;0.55;0.55;;;;;;;11.10;68.00;101074.56;18307108;32;20104;-59
2022/11/02 00:46:19;;;;;;;0.43;0.43;;;;;;;10.64;70.03;101072.47;18306743;32;20097;-59
2022/11/02 00:56:23;;;;;;;0.90;0.85;;;;;;;10.94;70.10;101074.44;18306716;32;20089;-59
2022/11/02 01:06:27;;;;;;;0.40;0.40;;;;;;;11.41;69.18;101066.00;18306340;32;20091;-59
2022/11/02 01:16:32;;;;;;;3.22;1.10;;;;;;;11.59;69.41;101057.41;18305786;32;20093;-59
2022/11/02 01:26:35;;;;;;;0.60;0.60;;;;;;;11.72;69.12;101055.69;18304965;32;20111;-59
2022/11/02 01:36:39;;;;;;;0.82;0.80;;;;;;;11.87;68.87;101053.13;18305540;32;20120;-59
2022/11/02 01:46:44;;;;;;;1.05;1.05;;;;;;;11.78;69.61;101056.59;18305000;32;20093;-59
2022/11/02 01:56:51;;;;;;;0.20;0.20;;;;;;;11.79;69.58;101037.41;18304766;32;20093;-59
2022/11/02 02:06:56;;;;;;;0.85;0.85;;;;;;;11.93;69.23;101061.00;18304536;32;20116;-59
2022/11/02 02:17:17;;;;;;;1.20;1.10;;;;;;;11.73;70.12;101060.91;18303753;32;20437;-59
2022/11/02 02:27:23;;;;;;;2.00;1.52;;;;;;;11.89;68.98;101058.38;18303718;32;20085;-59
2022/11/02 02:37:34;;;;;;;3.37;1.55;;;;;;;11.90;69.00;101052.25;18302427;32;20125;-59
2022/11/02 02:47:43;;;;;;;0.57;0.57;;;;;;;11.92;69.67;101058.38;18302628;32;20134;-59
2022/11/02 02:57:48;;;;;;;0.62;0.62;;;;;;;11.91;69.96;101060.13;18303391;32;20085;-59
2022/11/02 03:07:52;;;;;;;0.22;0.22;;;;;;;12.04;69.82;101070.66;18301742;32;20081;-59
2022/11/02 03:18:01;;;;;;;0.37;0.37;;;;;;;12.09;69.56;101078.50;18301189;32;20145;-59
2022/11/02 03:28:11;;;;;;;0.40;0.40;;;;;;;12.17;69.71;101087.25;18300622;32;20109;-59
2022/11/02 03:38:19;;;;;;;0.73;0.62;;;;;;;12.20;69.81;101105.56;18296313;32;157045;-59
2022/11/02 03:48:24;;;;;;;0.50;0.50;;;;;;;12.41;69.12;101119.56;18303470;32;20115;-59
2022/11/02 03:58:28;;;;;;;0.35;0.35;;;;;;;12.26;70.13;101121.31;18307941;32;20097;-59
2022/11/02 04:08:34;;;;;;;0.30;0.30;;;;;;;12.32;70.81;101120.44;18308796;32;20093;-59
2022/11/02 04:28:59;;;;;;;0.47;0.47;;;;;;;12.43;71.22;101105.63;18096155;32;20137;-59
2022/11/02 04:39:03;;;;;;;0.90;0.60;;;;;;;12.72;70.89;101103.91;18109207;32;20524;-59
2022/11/02 04:49:13;;;;;;;0.68;0.65;;;;;;;12.69;71.54;101115.25;18108128;32;20133;-59
2022/11/02 04:59:17;;;;;;;0.93;0.93;;;;;;;12.89;71.01;101132.72;18144680;32;20104;-59
2022/11/02 05:09:20;;;;;;;1.23;0.77;;;;;;;12.95;70.81;101142.31;18304565;32;20349;-59
2022/11/02 05:19:25;;;;;;;2.92;1.02;;;;;;;12.92;70.76;101147.56;18303930;32;20125;-59
2022/11/02 05:29:28;;;;;;;1.00;0.82;;;;;;;12.88;70.73;101162.41;18305632;32;20379;-59
2022/11/02 05:39:32;;;;;;;1.67;0.75;;;;;;;13.03;70.23;101175.50;18303934;32;20655;-59
2022/11/02 05:49:36;;;;;;;0.50;0.47;;;;;;;13.07;70.45;101173.75;18304951;32;20446;-59
2022/11/02 05:59:40;;;;;;;0.40;0.40;;;;;;;12.68;72.39;101173.75;18305986;32;20135;-59
2022/11/02 06:09:48;;;;;;;1.42;0.75;;;;;;;12.98;71.31;101171.12;18289978;32;20162;-59
2022/11/02 06:19:53;;;;;;;1.45;0.65;;;;;;;13.14;70.85;101172.91;18303753;32;20142;-59
2022/11/02 06:29:56;;;;;;;0.65;0.55;;;;;;;12.04;75.38;101170.94;18302977;32;20438;-60
2022/11/02 06:40:00;;;;;;;0.47;0.47;;;;;;;12.98;72.85;101151.06;18303280;32;20461;-60
2022/11/02 06:50:04;;;;;;;2.50;1.23;;;;;;;13.44;72.08;101173.75;18300518;32;20466;-59
2022/11/02 07:00:11;;;;;;;0.77;0.77;;;;;;;13.40;72.54;101165.87;18301761;32;20119;-59
2022/11/02 07:10:20;;;;;;;0.50;0.50;;;;;;;13.76;71.35;101173.72;18301436;32;20108;-60
2022/11/02 07:20:24;;;;;;;0.50;0.50;;;;;;;13.86;71.44;101175.44;18297011;32;20437;-60
2022/11/02 07:30:27;;;;;;;0.52;0.52;;;;;;;14.02;71.30;101179.72;18310143;32;20116;-59
2022/11/02 07:40:33;;;;;;;0.20;0.20;;;;;;;14.20;71.19;101170.00;18244068;32;20105;-59
2022/11/02 07:50:36;;;;;;;0.62;0.62;;;;;;;14.49;71.04;101187.38;18245018;32;20117;-60
2022/11/02 08:00:41;;;;;;;0.70;0.55;;;;;;;14.78;70.26;101188.97;18244857;32;20133;-59
2022/11/02 08:10:46;;;;;;;0.45;0.45;;;;;;;14.99;70.09;101192.34;18243693;32;20112;-59
2022/11/02 08:20:51;;;;;;;0.40;0.40;;;;;;;15.19;70.13;101188.66;18239413;32;20108;-59
2022/11/02 08:30:57;;;;;;;1.65;0.40;;;;;;;15.82;68.46;101177.50;18242970;32;20108;-59
2022/11/02 08:41:02;;;;;;;0.73;0.73;;;;;;;15.83;67.33;101183.63;18244322;32;20094;-59
2022/11/02 08:51:07;;;;;;;0.43;0.43;;;;;;;15.72;66.92;101181.12;18275277;32;20120;-59
2022/11/02 09:01:12;;;;;;;5.00;0.85;;;;;;;16.13;66.41;101189.47;18303100;32;20159;-60
2022/11/02 09:11:15;;;;;;;0.75;0.75;;;;;;;16.25;65.99;101171.75;18299394;32;20386;-60
2022/11/02 09:21:20;;;;;;;3.65;0.60;;;;;;;16.44;65.63;101167.97;18303701;32;20093;-60
2022/11/02 09:31:23;;;;;;;0.20;0.20;;;;;;;16.76;65.04;101179.75;18302390;32;20136;-60
2022/11/02 09:41:34;;;;;;;0.22;0.22;;;;;;;16.94;64.79;101172.47;18288797;32;20115;-60
2022/11/02 09:51:39;;;;;;;1.07;0.30;;;;;;;17.19;64.33;101172.94;18304027;32;20158;-60
2022/11/02 10:01:54;;;;;;;0.37;0.30;;;;;;;17.38;64.16;101161.19;18302573;32;20133;-60
2022/11/02 10:12:05;;;;;;;0.25;0.25;;;;;;;17.79;63.45;101156.88;18286466;32;20169;-60
2022/11/02 10:22:12;;;;;;;0.20;0.20;;;;;;;17.46;64.03;101154.88;18303547;32;20085;-60
2022/11/02 10:32:15;;;;;;;0.10;0.10;;;;;;;17.70;63.48;101155.31;18302354;32;20098;-60
2022/11/02 10:42:43;;;;;;;2.35;1.00;;;;;;;17.92;63.18;101151.34;18299450;32;20437;-60
2022/11/02 10:52:47;;;;;;;0.80;0.60;;;;;;;18.16;62.00;101142.94;18294648;32;20102;-60
2022/11/02 11:03:04;;;;;;;1.75;0.47;;;;;;;18.26;61.83;101145.37;18298674;32;20107;-60
2022/11/02 11:13:16;;;;;;;0.22;0.22;;;;;;;18.64;60.22;101138.31;18301776;32;20094;-60
2022/11/02 11:23:40;;;;;;;0.93;0.63;;;;;;;19.21;58.68;101120.16;18300599;32;20117;-62
2022/11/02 11:33:46;;;;;;;0.00;0.00;;;;;;;19.72;56.11;101115.19;18279177;32;20175;-58
2022/11/02 11:43:52;;;;;;;0.17;0.17;;;;;;;19.27;57.73;101114.69;18299591;32;20116;-59
2022/11/02 11:54:18;;;;;;;0.10;0.10;;;;;;;19.75;56.69;101109.84;18297284;32;20177;-59
2022/11/02 12:04:33;;;;;;;0.10;0.10;;;;;;;19.49;57.09;101114.09;18280396;32;20100;-58
2022/11/02 12:14:48;;;;;;;0.50;0.50;;;;;;;20.13;56.16;101082.25;18307393;32;20090;-59
2022/11/02 12:25:17;;;;;;;0.22;0.22;;;;;;;20.10;56.86;101078.75;18306432;32;20107;-58
2022/11/02 12:35:31;;;;;;;1.95;0.65;;;;;;;20.34;56.78;101065.66;18303204;32;20093;-59
2022/11/02 12:45:46;;;;;;;6.87;3.30;;;;;;;20.33;57.23;101066.56;18305713;32;20147;-60
2022/11/02 12:55:52;;;;;;;1.35;1.05;;;;;;;20.30;57.73;101053.44;18303393;32;20098;-59
2022/11/02 13:06:05;;;;;;;0.00;0.00;;;;;;;20.28;57.39;101041.97;18304218;32;20172;-59
2022/11/02 13:16:09;;;;;;;0.10;0.10;;;;;;;20.35;55.89;101048.81;18304277;32;20343;-59
2022/11/02 13:26:24;;;;;;;0.80;0.35;;;;;;;20.37;53.21;101035.53;18301754;32;20112;-59
2022/11/02 13:36:27;;;;;;;0.45;0.28;;;;;;;20.97;54.79;101042.38;18297593;32;20348;-59
2022/11/02 13:46:40;;;;;;;1.83;0.82;;;;;;;20.65;54.69;101042.56;18294867;32;20094;-59
2022/11/02 13:56:43;;;;;;;0.55;0.45;;;;;;;20.91;54.71;101049.63;18298313;32;20101;-60
2022/11/02 14:06:51;;;;;;;0.00;0.00;;;;;;;20.86;53.04;101056.88;18303648;32;20143;-60
2022/11/02 14:17:12;;;;;;;2.03;0.30;;;;;;;20.92;47.52;101069.94;18294599;32;20117;-61
2022/11/02 14:27:30;;;;;;;0.10;0.10;;;;;;;21.04;47.68;101059.81;18286666;32;20093;-60
2022/11/02 14:37:43;;;;;;;0.10;0.10;;;;;;;21.00;47.99;101067.00;18300996;32;20096;-61
2022/11/02 14:47:56;;;;;;;0.30;0.17;;;;;;;20.77;49.93;101071.31;18284040;32;20493;-60
2022/11/02 14:58:01;;;;;;;0.10;0.10;;;;;;;20.66;50.17;101070.81;18295952;32;20159;-61
2022/11/02 15:08:25;;;;;;;0.10;0.10;;;;;;;20.25;51.16;101079.22;18300375;32;20192;-60
2022/11/02 15:18:33;;;;;;;0.10;0.10;;;;;;;20.12;50.04;101080.53;18237800;32;20141;-60
2022/11/02 15:28:37;;;;;;;0.62;0.62;;;;;;;19.70;52.02;101085.25;18265352;32;20094;-60
2022/11/02 15:38:41;;;;;;;0.80;0.47;;;;;;;19.34;53.19;101090.69;18299548;32;20116;-60
2022/11/02 15:48:51;;;;;;;0.22;0.22;;;;;;;18.72;54.55;101098.44;18305026;32;20097;-60
2022/11/02 15:59:11;;;;;;;0.30;0.30;;;;;;;18.10;56.20;101102.56;18244589;32;20144;-60
2022/11/02 16:09:32;;;;;;;0.40;0.40;;;;;;;17.61;57.52;101110.59;18242499;32;20094;-60
2022/11/02 16:19:36;;;;;;;0.33;0.33;;;;;;;17.18;58.46;101109.69;18243696;32;20375;-60
2022/11/02 16:29:41;;;;;;;0.37;0.37;;;;;;;16.72;59.68;101109.53;18241671;32;20094;-60
2022/11/02 16:39:46;;;;;;;0.20;0.20;;;;;;;16.30;60.61;101122.47;18241971;32;20111;-60
2022/11/02 16:49:58;;;;;;;0.60;0.60;;;;;;;15.95;61.38;101144.03;18247607;32;20097;-60
2022/11/02 17:00:04;;;;;;;0.68;0.62;;;;;;;15.50;62.56;101146.28;18305032;32;20143;-60
2022/11/02 17:10:18;;;;;;;0.40;0.40;;;;;;;15.32;62.91;101155.22;18306512;32;20354;-60
2022/11/02 17:20:23;;;;;;;0.93;0.70;;;;;;;15.14;63.67;101156.28;18304045;32;20469;-60
2022/11/02 17:30:47;;;;;;;2.33;1.90;;;;;;;14.61;65.27;101169.81;18304998;32;20489;-60
2022/11/02 17:40:51;;;;;;;0.65;0.65;;;;;;;14.53;65.22;101178.59;18296408;32;20391;-60
2022/11/02 17:50:58;;;;;;;0.98;0.85;;;;;;;14.50;64.95;101173.34;18304186;32;20086;-60
2022/11/02 18:01:02;;;;;;;0.47;0.47;;;;;;;14.29;65.30;101169.97;18305125;32;20118;-60
2022/11/02 18:11:09;;;;;;;0.37;0.37;;;;;;;13.99;65.41;101176.22;18303557;32;20465;-60
2022/11/02 18:21:12;;;;;;;1.08;0.98;;;;;;;13.87;65.02;101183.28;18290987;32;20120;-60
2022/11/02 18:31:17;;;;;;;0.50;0.50;;;;;;;13.81;65.63;101164.94;18303483;32;20098;-59
2022/11/02 18:41:29;;;;;;;0.30;0.30;;;;;;;13.88;65.83;101161.41;18302780;32;20189;-60
2022/11/02 18:51:34;;;;;;;0.70;0.70;;;;;;;13.94;67.56;101180.62;18303799;32;20104;-60
2022/11/02 19:01:37;;;;;;;3.60;1.20;;;;;;;13.97;67.25;101165.75;18302008;32;20138;-60
2022/11/02 19:11:42;;;;;;;1.20;0.85;;;;;;;14.26;65.64;101177.88;18300890;32;20134;-60
2022/11/02 19:21:47;;;;;;;0.50;0.50;;;;;;;14.52;64.16;101175.97;18292792;32;20093;-60
2022/11/02 19:31:51;;;;;;;0.30;0.30;;;;;;;15.18;62.78;101179.03;18309703;32;20500;-58
2022/11/02 19:41:55;;;;;;;0.20;0.20;;;;;;;15.87;60.47;101182.72;18294216;32;20138;-58
2022/11/02 19:52:00;;;;;;;0.57;0.57;;;;;;;16.33;58.74;101188.31;18307598;32;20116;-59
2022/11/02 20:02:04;;;;;;;0.30;0.30;;;;;;;16.57;58.02;101176.56;18309064;32;20137;-59
2022/11/02 20:12:08;;;;;;;0.47;0.47;;;;;;;16.66;57.59;101191.34;18305785;32;20093;-58
2022/11/02 20:22:12;;;;;;;0.30;0.30;;;;;;;16.73;57.33;101174.56;18285401;32;20124;-58
2022/11/02 20:32:19;;;;;;;0.50;0.50;;;;;;;16.48;57.39;101179.31;18281653;32;20106;-58
2022/11/02 20:42:24;;;;;;;0.52;0.52;;;;;;;16.53;57.48;101177.47;18280010;32;20115;-58
2022/11/02 20:52:29;;;;;;;0.30;0.30;;;;;;;16.52;57.44;101181.00;18300686;32;20652;-58
2022/11/02 21:02:32;;;;;;;0.30;0.30;;;;;;;16.50;56.30;101183.69;18294988;32;20105;-59
2022/11/02 21:22:59;;;;;;;0.62;0.55;;;;;;;16.27;56.04;101180.50;18299107;32;20500;-59
2022/11/02 21:33:04;;;;;;;0.20;0.20;;;;;;;16.20;56.39;101184.97;18288885;32;20094;-60
2022/11/02 21:43:07;;;;;;;1.05;0.30;;;;;;;15.72;56.88;101190.75;18281511;32;20089;-60
2022/11/02 21:53:12;;;;;;;0.45;0.43;;;;;;;16.27;54.06;101191.03;18300971;32;20119;-60
2022/11/02 22:03:15;;;;;;;0.30;0.30;;;;;;;16.46;53.96;101204.84;18296450;32;20358;-60
2022/11/02 22:13:34;;;;;;;0.35;0.35;;;;;;;16.53;53.00;101195.94;18302606;32;20094;-60
2022/11/02 22:23:38;;;;;;;0.20;0.20;;;;;;;16.61;53.43;101193.19;18299401;32;20154;-60
2022/11/02 22:33:44;;;;;;;0.30;0.30;;;;;;;16.49;52.98;101188.97;18299670;32;20097;-60
2022/11/02 22:43:47;;;;;;;0.20;0.20;;;;;;;16.36;53.83;101202.31;18304500;32;20093;-59
2022/11/02 22:53:52;;;;;;;0.25;0.25;;;;;;;16.46;54.21;101208.31;18301447;32;20172;-60
2022/11/02 23:03:55;;;;;;;0.30;0.30;;;;;;;16.06;54.31;101211.47;18290553;32;20093;-60
2022/11/02 23:14:02;;;;;;;0.20;0.20;;;;;;;15.72;55.33;101199.56;18238601;32;20098;-59
2022/11/02 23:34:27;;;;;;;0.50;0.50;;;;;;;16.31;50.64;101208.53;18238798;32;20135;-59
2022/11/02 23:44:30;;;;;;;2.37;0.77;;;;;;;15.89;53.21;101228.31;18237033;32;20101;-60
